createdAt,value
2023-02-09T00:00:16.179Z,99.90
2023-02-09T00:03:18.573Z,99.90
2023-02-09T00:06:22.887Z,99.90
2023-02-09T00:09:25.346Z,99.90
2023-02-09T00:12:50.858Z,99.90
2023-02-09T00:15:57.474Z,99.90
2023-02-09T00:18:59.537Z,99.90
2023-02-09T00:22:01.642Z,99.90
2023-02-09T00:25:03.958Z,99.90
2023-02-09T00:28:06.963Z,99.90
2023-02-09T00:31:11.721Z,99.90
2023-02-09T00:34:14.144Z,99.90
2023-02-09T00:37:16.305Z,99.90
2023-02-09T00:40:18.992Z,99.90
2023-02-09T00:43:21.155Z,99.90
2023-02-09T00:46:23.278Z,99.90
2023-02-09T00:49:25.605Z,99.90
2023-02-09T00:52:27.779Z,99.90
2023-02-09T00:55:29.961Z,99.90
2023-02-09T00:58:32.157Z,99.90
2023-02-09T01:01:34.720Z,99.90
2023-02-09T01:04:38.181Z,99.90
2023-02-09T01:07:40.296Z,99.90
2023-02-09T01:10:43.765Z,99.90
2023-02-09T01:13:46.337Z,99.90
2023-02-09T01:16:48.422Z,99.90
2023-02-09T01:19:59.560Z,99.90
2023-02-09T01:23:01.714Z,99.90
2023-02-09T01:26:08.703Z,99.90
2023-02-09T01:29:14.756Z,99.90
2023-02-09T01:32:16.985Z,99.90
2023-02-09T01:35:19.339Z,99.90
2023-02-09T01:38:21.582Z,99.90
2023-02-09T01:41:23.883Z,99.90
2023-02-09T01:44:25.988Z,99.90
2023-02-09T01:47:28.232Z,99.90
2023-02-09T01:50:36.202Z,99.90
2023-02-09T01:53:38.405Z,99.90
2023-02-09T01:56:45.159Z,99.90
2023-02-09T01:59:51.914Z,99.90
2023-02-09T02:03:05.190Z,99.90
2023-02-09T02:06:12.790Z,99.90
2023-02-09T02:09:17.168Z,99.90
2023-02-09T02:12:19.556Z,99.90
2023-02-09T02:15:31.470Z,99.90
2023-02-09T02:19:03.016Z,99.90
2023-02-09T02:22:23.050Z,99.90
2023-02-09T02:26:07.217Z,99.90
2023-02-09T02:29:28.242Z,99.90
2023-02-09T02:32:44.110Z,99.90
2023-02-09T02:36:11.917Z,99.90
2023-02-09T02:39:26.600Z,99.90
2023-02-09T02:43:10.897Z,99.90
2023-02-09T02:46:36.060Z,99.90
2023-02-09T02:49:45.030Z,99.90
2023-02-09T02:52:50.301Z,99.90
2023-02-09T02:55:59.151Z,99.90
2023-02-09T02:59:05.529Z,99.90
2023-02-09T03:02:20.125Z,99.90
2023-02-09T03:05:24.526Z,99.90
2023-02-09T03:08:26.699Z,99.90
2023-02-09T03:11:36.219Z,99.90
2023-02-09T03:15:22.902Z,99.90
2023-02-09T03:18:38.834Z,99.90
2023-02-09T03:21:48.093Z,99.90
2023-02-09T03:25:08.931Z,99.90
2023-02-09T03:28:27.251Z,99.90
2023-02-09T03:31:30.785Z,99.90
2023-02-09T03:34:33.113Z,99.90
2023-02-09T03:37:35.271Z,99.90
2023-02-09T03:40:37.649Z,99.90
2023-02-09T03:43:58.234Z,99.90
2023-02-09T03:47:08.736Z,99.90
2023-02-09T03:50:11.024Z,99.90
2023-02-09T03:53:14.412Z,99.90
2023-02-09T03:56:16.481Z,99.90
2023-02-09T03:59:18.746Z,99.90
2023-02-09T04:02:20.900Z,99.90
2023-02-09T04:05:23.168Z,99.90
2023-02-09T04:08:27.165Z,99.90
2023-02-09T04:11:32.332Z,99.90
2023-02-09T04:14:34.443Z,99.90
2023-02-09T04:17:36.481Z,99.90
2023-02-09T04:20:40.766Z,99.90
2023-02-09T04:23:43.075Z,99.90
2023-02-09T04:26:47.280Z,99.90
2023-02-09T04:29:49.422Z,99.90
2023-02-09T04:32:52.288Z,99.90
2023-02-09T04:35:55.085Z,99.90
2023-02-09T04:38:57.299Z,99.90
2023-02-09T04:41:59.385Z,99.90
2023-02-09T04:45:01.552Z,99.90
2023-02-09T04:48:03.644Z,99.90
2023-02-09T04:51:06.052Z,99.90
2023-02-09T04:54:08.202Z,99.90
2023-02-09T04:57:28.876Z,99.90
2023-02-09T05:00:31.049Z,99.90
2023-02-09T05:03:33.936Z,99.90
2023-02-09T05:06:36.219Z,99.90
2023-02-09T05:09:38.432Z,99.90
2023-02-09T05:12:40.969Z,99.90
2023-02-09T05:15:43.235Z,99.90
2023-02-09T05:18:45.609Z,99.90
2023-02-09T05:21:47.768Z,99.90
2023-02-09T05:24:50.006Z,99.90
2023-02-09T05:27:52.222Z,99.90
2023-02-09T05:30:58.643Z,99.90
2023-02-09T05:34:01.167Z,99.90
2023-02-09T05:37:03.516Z,99.90
2023-02-09T05:40:06.488Z,99.90
2023-02-09T05:43:09.347Z,99.90
2023-02-09T05:46:11.495Z,99.90
2023-02-09T05:49:13.731Z,99.90
2023-02-09T05:52:16.786Z,99.90
2023-02-09T05:55:18.945Z,99.90
2023-02-09T05:58:21.007Z,99.90
2023-02-09T06:01:23.073Z,99.90
2023-02-09T06:04:26.174Z,99.90
2023-02-09T06:07:28.450Z,99.90
2023-02-09T06:10:30.754Z,99.90
2023-02-09T06:13:33.364Z,99.90
2023-02-09T06:16:35.464Z,99.90
2023-02-09T06:19:37.665Z,99.90
2023-02-09T06:22:39.914Z,99.90
2023-02-09T06:25:42.865Z,99.90
2023-02-09T06:28:45.548Z,99.90
2023-02-09T06:31:47.908Z,99.90
2023-02-09T06:34:49.992Z,99.90
2023-02-09T06:37:52.139Z,99.90
2023-02-09T06:40:54.402Z,99.90
2023-02-09T06:43:56.577Z,99.90
2023-02-09T06:46:58.780Z,99.90
2023-02-09T06:50:01.127Z,99.90
2023-02-09T06:53:04.123Z,99.90
2023-02-09T06:56:07.416Z,99.90
2023-02-09T06:59:09.606Z,99.90
2023-02-09T07:02:11.922Z,99.90
2023-02-09T07:05:15.365Z,99.90
2023-02-09T07:08:17.693Z,99.90
2023-02-09T07:11:20.397Z,99.90
2023-02-09T07:14:22.523Z,99.90
2023-02-09T07:17:24.580Z,99.90
2023-02-09T07:20:26.733Z,99.90
2023-02-09T07:23:29.225Z,99.90
2023-02-09T07:26:31.416Z,99.90
2023-02-09T07:29:33.959Z,99.90
2023-02-09T07:32:38.636Z,99.90
2023-02-09T07:35:40.963Z,99.90
2023-02-09T07:38:43.672Z,99.90
2023-02-09T07:41:45.868Z,99.90
2023-02-09T07:44:48.407Z,99.90
2023-02-09T07:47:50.561Z,99.90
2023-02-09T07:50:53.278Z,99.90
2023-02-09T07:53:57.534Z,99.90
2023-02-09T07:56:59.720Z,99.90
2023-02-09T08:00:02.055Z,99.90
2023-02-09T08:03:05.678Z,99.90
2023-02-09T08:06:19.750Z,99.90
2023-02-09T08:09:22.336Z,99.90
2023-02-09T08:12:48.004Z,99.90
2023-02-09T08:16:01.216Z,99.90
2023-02-09T08:19:17.163Z,99.90
2023-02-09T08:22:20.783Z,99.90
2023-02-09T08:25:24.695Z,99.90
2023-02-09T08:28:41.683Z,99.90
2023-02-09T08:32:05.782Z,99.90
2023-02-09T08:35:08.193Z,99.90
2023-02-09T08:38:10.750Z,99.90
2023-02-09T08:41:14.612Z,99.90
2023-02-09T08:44:16.704Z,99.90
2023-02-09T08:47:19.219Z,99.90
2023-02-09T08:50:21.445Z,99.90
2023-02-09T08:53:23.647Z,99.90
2023-02-09T08:56:25.738Z,99.90
2023-02-09T08:59:28.474Z,99.90
2023-02-09T09:02:30.570Z,99.90
2023-02-09T09:05:35.293Z,99.90
2023-02-09T09:08:39.606Z,99.90
2023-02-09T09:11:41.987Z,99.90
2023-02-09T09:14:44.591Z,99.90
2023-02-09T09:17:46.818Z,99.90
2023-02-09T09:20:49.289Z,99.90
2023-02-09T09:23:51.374Z,99.90
2023-02-09T09:26:53.670Z,97.00
2023-02-09T09:29:56.126Z,77.80
2023-02-09T09:32:58.299Z,73.40
2023-02-09T09:36:01.833Z,67.10
2023-02-09T09:39:04.156Z,54.70
2023-02-09T09:42:06.453Z,50.50
2023-02-09T09:45:15.005Z,45.70
2023-02-09T09:48:27.013Z,41.10
2023-02-09T09:51:41.263Z,43.30
2023-02-09T09:54:44.477Z,40.40
2023-02-09T09:57:46.757Z,36.80
2023-02-09T10:00:50.216Z,32.10
2023-02-09T10:03:53.246Z,36.50
2023-02-09T10:07:10.080Z,31.50
2023-02-09T10:10:23.994Z,34.50
2023-02-09T10:13:32.360Z,35.00
2023-02-09T10:16:38.209Z,34.30
2023-02-09T10:19:40.461Z,34.90
2023-02-09T10:22:48.160Z,36.40
2023-02-09T10:26:01.062Z,39.80
2023-02-09T10:29:12.146Z,36.80
2023-02-09T10:32:17.776Z,34.70
2023-02-09T10:35:48.008Z,38.30
2023-02-09T10:38:50.372Z,38.50
2023-02-09T10:41:55.149Z,38.70
2023-02-09T10:45:05.513Z,34.50
2023-02-09T10:48:13.157Z,39.90
2023-02-09T10:51:16.715Z,39.30
2023-02-09T10:54:22.130Z,36.20
2023-02-09T10:57:36.507Z,40.40
2023-02-09T11:00:53.521Z,41.60
2023-02-09T11:04:25.062Z,38.20
2023-02-09T11:07:37.314Z,40.80
2023-02-09T11:10:45.295Z,40.40
2023-02-09T11:13:47.530Z,38.40
2023-02-09T11:17:11.118Z,35.00
2023-02-09T11:20:35.975Z,34.70
2023-02-09T11:24:00.689Z,32.90
2023-02-09T11:27:18.422Z,36.80
2023-02-09T11:31:02.813Z,34.50
2023-02-09T11:34:14.086Z,33.90
2023-02-09T11:37:36.222Z,32.80
2023-02-09T11:40:44.020Z,33.00
2023-02-09T11:43:49.434Z,30.50
2023-02-09T11:46:58.844Z,31.40
2023-02-09T11:50:05.807Z,28.50
2023-02-09T11:53:34.592Z,27.20
2023-02-09T11:56:44.647Z,26.20
2023-02-09T11:59:57.123Z,26.10
2023-02-09T12:03:11.934Z,28.10
2023-02-09T12:06:17.194Z,32.10
2023-02-09T12:09:25.141Z,28.40
2023-02-09T12:12:43.717Z,28.30
2023-02-09T12:15:51.472Z,26.10
2023-02-09T12:18:55.353Z,26.80
2023-02-09T12:21:57.567Z,25.00
2023-02-09T12:25:05.722Z,26.00
2023-02-09T12:28:10.858Z,20.80
2023-02-09T12:31:25.773Z,22.20
2023-02-09T12:34:40.201Z,23.20
2023-02-09T12:38:16.097Z,23.10
2023-02-09T12:41:22.257Z,25.20
2023-02-09T12:44:24.689Z,24.40
2023-02-09T12:47:47.217Z,24.90
2023-02-09T12:50:53.730Z,23.40
2023-02-09T12:53:56.288Z,23.30
2023-02-09T12:57:16.818Z,22.40
2023-02-09T13:00:19.135Z,22.30
2023-02-09T13:03:23.337Z,21.80
2023-02-09T13:06:39.466Z,22.50
2023-02-09T13:09:43.271Z,20.10
2023-02-09T13:13:12.866Z,22.80
2023-02-09T13:16:24.012Z,22.30
2023-02-09T13:19:51.685Z,22.20
2023-02-09T13:23:17.380Z,19.50
2023-02-09T13:26:24.582Z,22.60
2023-02-09T13:29:29.098Z,20.90
2023-02-09T13:32:36.758Z,21.00
2023-02-09T13:35:54.534Z,21.40
2023-02-09T13:38:58.094Z,18.10
2023-02-09T13:42:00.558Z,20.40
2023-02-09T13:45:02.801Z,18.60
2023-02-09T13:48:34.265Z,18.20
2023-02-09T13:51:36.366Z,18.20
2023-02-09T13:54:40.680Z,18.50
2023-02-09T13:57:45.700Z,19.60
2023-02-09T14:01:00.868Z,18.80
2023-02-09T14:04:15.648Z,19.60
2023-02-09T14:07:19.659Z,19.80
2023-02-09T14:10:23.646Z,18.30
2023-02-09T14:13:42.650Z,18.20
2023-02-09T14:17:24.372Z,18.00
2023-02-09T14:20:27.470Z,16.90
2023-02-09T14:23:33.069Z,16.90
2023-02-09T14:27:04.947Z,16.10
2023-02-09T14:30:24.000Z,17.70
2023-02-09T14:33:28.750Z,17.00
2023-02-09T14:36:36.296Z,16.70
2023-02-09T14:40:04.689Z,17.50
2023-02-09T14:43:12.854Z,16.40
2023-02-09T14:46:14.964Z,18.20
2023-02-09T14:49:17.616Z,16.60
2023-02-09T14:52:23.715Z,16.20
2023-02-09T14:55:29.846Z,15.70
2023-02-09T14:58:33.858Z,16.10
2023-02-09T15:01:36.081Z,15.30
2023-02-09T15:04:38.159Z,15.30
2023-02-09T15:07:43.274Z,14.40
2023-02-09T15:10:53.380Z,14.90
2023-02-09T15:14:03.917Z,15.10
2023-02-09T15:17:19.121Z,16.50
2023-02-09T15:20:26.183Z,17.10
2023-02-09T15:23:29.995Z,17.00
2023-02-09T15:26:35.792Z,17.90
2023-02-09T15:29:37.952Z,17.50
2023-02-09T15:32:40.674Z,17.80
2023-02-09T15:35:43.012Z,18.40
2023-02-09T15:38:45.331Z,18.10
2023-02-09T15:42:06.181Z,20.70
2023-02-09T15:45:38.566Z,22.90
2023-02-09T15:48:42.012Z,21.90
2023-02-09T15:51:44.634Z,27.80
2023-02-09T15:54:49.519Z,29.40
2023-02-09T15:57:53.925Z,28.00
2023-02-09T16:00:57.141Z,31.10
2023-02-09T16:04:12.822Z,32.70
2023-02-09T16:07:23.580Z,32.80
2023-02-09T16:10:30.773Z,33.30
2023-02-09T16:13:32.942Z,34.80
2023-02-09T16:16:35.620Z,35.40
2023-02-09T16:19:38.468Z,36.90
2023-02-09T16:22:43.148Z,44.30
2023-02-09T16:25:48.642Z,52.70
2023-02-09T16:28:52.086Z,58.30
2023-02-09T16:31:54.675Z,65.60
2023-02-09T16:35:11.120Z,75.30
2023-02-09T16:38:21.497Z,83.40
2023-02-09T16:41:42.510Z,85.50
2023-02-09T16:44:45.358Z,88.00
2023-02-09T16:47:54.752Z,90.50
2023-02-09T16:50:58.476Z,91.40
2023-02-09T16:54:03.805Z,92.50
2023-02-09T16:57:10.554Z,87.00
2023-02-09T17:00:14.008Z,91.00
2023-02-09T17:03:20.360Z,89.60
2023-02-09T17:06:27.503Z,90.20
2023-02-09T17:09:31.988Z,91.10
2023-02-09T17:12:35.607Z,85.60
2023-02-09T17:15:46.418Z,90.80
2023-02-09T17:18:59.247Z,92.60
2023-02-09T17:22:04.390Z,93.30
2023-02-09T17:25:19.817Z,93.70
2023-02-09T17:28:25.462Z,95.00
2023-02-09T17:31:38.212Z,95.40
2023-02-09T17:34:44.200Z,96.40
2023-02-09T17:37:49.937Z,95.50
2023-02-09T17:40:55.913Z,95.90
2023-02-09T17:44:20.688Z,95.60
2023-02-09T17:47:29.317Z,96.40
2023-02-09T17:50:32.780Z,96.20
2023-02-09T17:53:36.264Z,96.20
2023-02-09T17:56:42.618Z,96.80
2023-02-09T17:59:48.312Z,97.50
2023-02-09T18:02:52.737Z,97.70
2023-02-09T18:05:58.922Z,97.50
2023-02-09T18:09:06.265Z,97.20
2023-02-09T18:12:27.126Z,97.40
2023-02-09T18:15:46.987Z,97.70
2023-02-09T18:18:53.144Z,97.60
2023-02-09T18:22:07.643Z,98.20
2023-02-09T18:25:25.138Z,97.80
2023-02-09T18:28:30.857Z,99.00
2023-02-09T18:31:36.791Z,99.20
2023-02-09T18:34:41.539Z,99.40
2023-02-09T18:37:47.055Z,99.40
2023-02-09T18:40:52.117Z,99.90
2023-02-09T18:43:56.315Z,99.90
2023-02-09T18:47:08.896Z,99.70
2023-02-09T18:50:20.139Z,99.90
2023-02-09T18:53:23.947Z,99.90
2023-02-09T18:56:29.383Z,99.40
2023-02-09T18:59:33.597Z,99.50
2023-02-09T19:02:38.121Z,99.90
2023-02-09T19:05:41.610Z,99.90
2023-02-09T19:08:44.977Z,99.90
2023-02-09T19:11:50.888Z,99.90
2023-02-09T19:14:55.894Z,99.90
2023-02-09T19:18:02.701Z,99.90
2023-02-09T19:21:07.778Z,99.40
2023-02-09T19:24:10.971Z,99.70
2023-02-09T19:27:18.741Z,99.90
2023-02-09T19:30:27.189Z,99.90
2023-02-09T19:33:30.494Z,99.90
2023-02-09T19:36:35.477Z,99.90
2023-02-09T19:39:40.647Z,99.90
2023-02-09T19:42:45.810Z,99.90
2023-02-09T19:45:57.482Z,99.90
2023-02-09T19:49:02.669Z,99.90
2023-02-09T19:52:07.690Z,99.90
2023-02-09T19:55:14.936Z,99.90
2023-02-09T19:58:18.402Z,99.90
2023-02-09T20:01:23.040Z,99.90
2023-02-09T20:04:27.676Z,99.90
2023-02-09T20:07:31.270Z,99.90
2023-02-09T20:10:35.925Z,99.90
2023-02-09T20:13:41.093Z,99.90
2023-02-09T20:16:44.665Z,99.90
2023-02-09T20:19:51.303Z,99.90
2023-02-09T20:22:54.431Z,99.90
2023-02-09T20:26:00.397Z,99.90
2023-02-09T20:29:05.898Z,99.90
2023-02-09T20:32:11.281Z,99.90
2023-02-09T20:35:15.687Z,99.90
2023-02-09T20:38:20.122Z,99.90
2023-02-09T20:41:25.100Z,99.90
2023-02-09T20:44:48.237Z,99.90
2023-02-09T20:47:52.391Z,99.90
2023-02-09T20:51:03.408Z,99.90
2023-02-09T20:54:07.949Z,99.90
2023-02-09T20:57:11.554Z,99.90
2023-02-09T21:00:15.368Z,99.90
2023-02-09T21:03:18.565Z,99.90
2023-02-09T21:06:23.540Z,99.90
2023-02-09T21:09:28.404Z,99.90
2023-02-09T21:12:31.566Z,99.90
2023-02-09T21:15:39.434Z,99.90
2023-02-09T21:18:44.851Z,99.90
2023-02-09T21:21:47.537Z,99.90
2023-02-09T21:24:54.885Z,99.90
2023-02-09T21:27:59.817Z,99.90
2023-02-09T21:31:02.792Z,99.90
2023-02-09T21:34:05.494Z,99.90
2023-02-09T21:37:14.036Z,99.90
2023-02-09T21:40:20.598Z,99.90
2023-02-09T21:43:22.835Z,99.90
2023-02-09T21:46:28.628Z,99.90
2023-02-09T21:49:31.968Z,99.90
2023-02-09T21:52:34.915Z,99.90
2023-02-09T21:55:37.116Z,99.90
2023-02-09T21:58:39.506Z,99.90
2023-02-09T22:01:42.599Z,99.90
2023-02-09T22:04:45.691Z,99.90
2023-02-09T22:07:49.949Z,99.90
2023-02-09T22:10:52.469Z,99.90
2023-02-09T22:14:00.824Z,99.90
2023-02-09T22:17:03.328Z,99.90
2023-02-09T22:20:05.902Z,99.90
2023-02-09T22:23:08.190Z,99.90
2023-02-09T22:26:13.738Z,99.90
2023-02-09T22:29:16.955Z,99.90
2023-02-09T22:32:20.481Z,99.90
2023-02-09T22:35:22.986Z,99.90
2023-02-09T22:38:25.186Z,99.90
2023-02-09T22:41:27.322Z,99.90
2023-02-09T22:44:30.476Z,99.90
2023-02-09T22:47:33.713Z,99.90
2023-02-09T22:50:36.379Z,99.90
2023-02-09T22:53:38.751Z,99.90
2023-02-09T22:56:41.429Z,99.90
2023-02-09T22:59:43.605Z,99.90
2023-02-09T23:02:45.655Z,99.90
2023-02-09T23:05:48.061Z,99.90
2023-02-09T23:08:55.270Z,99.90
2023-02-09T23:11:57.370Z,99.90
2023-02-09T23:14:59.510Z,99.90
2023-02-09T23:18:01.620Z,99.90
2023-02-09T23:21:08.080Z,99.90
2023-02-09T23:24:11.180Z,99.90
2023-02-09T23:27:13.272Z,99.90
2023-02-09T23:30:15.412Z,99.90
2023-02-09T23:33:17.546Z,99.90
2023-02-09T23:36:24.111Z,99.90
2023-02-09T23:39:27.446Z,99.90
2023-02-09T23:42:29.595Z,99.90
2023-02-09T23:45:31.723Z,99.90
2023-02-09T23:48:34.194Z,99.90
2023-02-09T23:51:36.664Z,99.90
2023-02-09T23:54:38.762Z,99.90
2023-02-09T23:57:40.864Z,99.90
